Nearby METAR Reports

 

KMQY - Smyrna, Tennessee, USA
Distance from station: WNW 14mi, 22km
Updated: Sat, 25-May-2024 6:14am CDT
Light rain, Overcast
Light rain, Overcast
 Wind from S
Wind: S 6 mph , 9 km/h
Temperature: 66°F , 19°C
Dew Point: 64°F , 18°C
Humidity: 94%
Barometer: 29.89 inHg , 1012.2 hPa
Summary: Light rain
Clouds: Overcast
Visibility: 10 miles , 16 km
Cloud details: Few Clouds 3000 ft
Mostly cloudy 6500 ft
Overcast 10000 ft
2024/05/25 11:14 KMQY 251114Z AUTO 19005KT 10SM -RA FEW030 BKN065 OVC100 19/18 A2989 RMK AO2 LTG DSNT ALQDS TSE08 PRESRR P0001
KSYI - Shelbyville, Tennessee, USA
Distance from station: SSW 25mi, 40km
Updated: Sat, 25-May-2024 6:15am CDT
Mist, Overcast
Mist, Overcast
 Wind from WSW
Wind: WSW 26 mph , 43 km/h, Gust: 33 mph , 54 km/h
Temperature: 66°F , 19°C
Dew Point: 64°F , 18°C
Humidity: 94%
Barometer: 29.96 inHg , 1014.6 hPa
Summary: Mist
Clouds: Overcast
Visibility: 3/4 mile , 1.2 km
Cloud details: Overcast 200 ft
2024/05/25 11:15 KSYI 251115Z AUTO 24023G29KT 3/4SM BR OVC002 19/18 A2996 RMK A01
KBNA - Nashville, Tennessee, USA
Distance from station: NW 25mi, 41km
Updated: Sat, 25-May-2024 6:19am CDT
Overcast
Overcast
 Wind from W
Wind: W 8 mph , 13 km/h, Gust: 20 mph , 31 km/h
Temperature: 68°F , 20°C
Dew Point: 64°F , 18°C
Humidity: 88%
Barometer: 29.90 inHg , 1012.5 hPa
Clouds: Overcast
Visibility: 10 miles , 16 km
Cloud details: Partly cloudy 700 ft
Mostly cloudy 8000 ft
Mostly cloudy 20000 ft
Overcast 25000 ft
2024/05/25 11:19 KBNA 251119Z 28007G17KT 10SM SCT007 BKN080 BKN200 OVC250 20/18 A2990 RMK AO2 LTG DSNT ALQDS T02000183 $
 
KRNC - Mcminnville, Tennessee, USA
Distance from station: ESE 30mi, 48km
Updated: Sat, 25-May-2024 6:15am CDT
Overcast
Overcast
 Wind from NNE
Wind: NNE 6 mph , 9 km/h, Gust: 14 mph , 22 km/h
Temperature: 68°F , 20°C
Dew Point: 66°F , 19°C
Humidity: 94%
Barometer: 29.93 inHg , 1013.5 hPa
Clouds: Overcast
Visibility: 10 miles , 16 km
Cloud details: Mostly cloudy 2300 ft
Overcast 3000 ft
2024/05/25 11:15 KRNC 251115Z AUTO 02005G12KT 10SM BKN023 OVC030 20/19 A2993 RMK A01
KM33 - Gallatin, Tennessee, USA
Distance from station: N 33mi, 54km
Updated: Wed, 23-May-2018 7:55pm CDT
NOT Current
Clear
Clear
 Wind from calm
Wind: Calm
Temperature: 79°F , 26°C
Dew Point: 66°F , 19°C
Humidity: 65%
Barometer: 30.10 inHg , 1019.3 hPa
Clouds: Clear
Visibility: 10 miles , 16 km
2018/05/24 00:55 KM33 240055Z AUTO 00000KT 10SM CLR 26/19 A3010 RMK A01
KTHA - Tullahoma, Tennessee, USA
Distance from station: S 36mi, 59km
Updated: Sat, 25-May-2024 6:15am CDT
Mostly cloudy
Mostly cloudy
 Wind from calm
Wind: Calm
Temperature: 68°F , 20°C
Dew Point: 64°F , 18°C
Humidity: 88%
Barometer: 29.90 inHg , 1012.5 hPa
Clouds: Mostly cloudy
Visibility: 10 miles , 16 km
Cloud details: Partly cloudy 4300 ft
Partly cloudy 5500 ft
Mostly cloudy 10000 ft
2024/05/25 11:15 KTHA 251115Z AUTO 00000KT 10SM SCT043 SCT055 BKN100 20/18 A2990 RMK A01
 
KJWN - Nashv/Jc Tune, Tennessee, USA
Distance from station: WNW 37mi, 60km
Updated: Sat, 25-May-2024 6:15am CDT
Heavy rain, Overcast
Heavy rain, Overcast
 Wind from SSW
Wind: SSW 13 mph , 20 km/h
Temperature: 68°F , 20°C
Dew Point: 68°F , 20°C
Humidity: 100%
Barometer: 29.88 inHg , 1011.9 hPa
Summary: Heavy rain
Clouds: Overcast
Visibility: 1 1/4 miles , 2 km
Cloud details: Mostly cloudy 600 ft
Overcast 2800 ft
2024/05/25 11:15 KJWN 251115Z AUTO 21011KT 1 1/4SM +RA BKN006 OVC028 20/20 A2988 RMK AO2
KSRB - Sparta, Tennessee, USA
Distance from station: ENE 45mi, 72km
Updated: Sat, 25-May-2024 6:15am CDT
Mostly cloudy
Mostly cloudy
 Wind from SE
Wind: SE 3 mph , 6 km/h
Temperature: 64°F , 18°C
Dew Point: 64°F , 18°C
Humidity: 100%
Barometer: 29.90 inHg , 1012.5 hPa
Clouds: Mostly cloudy
Visibility: 10 miles , 16 km
Cloud details: Mostly cloudy 4000 ft
Mostly cloudy 5000 ft
Mostly cloudy 6000 ft
2024/05/25 11:15 KSRB 251115Z AUTO 13003KT 10SM BKN040 BKN050 BKN060 18/18 A2990 RMK AO2
K1M5 - Portland, Tennessee, USA
Distance from station: NNW 49mi, 78km
Updated: Fri, 24-May-2024 6:10am CDT
NOT Current
Clear
Clear
 Wind from SSE
Wind: SSE 5 mph , 7 km/h
Temperature: 64°F , 18°C
Dew Point: 64°F , 18°C
Humidity: 100%
Barometer: 29.92 inHg , 1013.2 hPa
Clouds: Clear
Visibility: 10 miles , 16 km
2024/05/24 11:10 K1M5 241110Z AUTO 16004KT 10SM CLR 18/18 A2992 RMK A01